createdAt,value
2023-02-03T00:01:23.169Z,1.33
2023-02-03T00:03:31.052Z,1.30
2023-02-03T00:05:40.384Z,1.40
2023-02-03T00:07:48.299Z,1.65
2023-02-03T00:09:56.227Z,1.77
2023-02-03T00:12:04.137Z,1.50
2023-02-03T00:14:12.040Z,1.50
2023-02-03T00:16:22.509Z,1.20
2023-02-03T00:18:30.685Z,1.20
2023-02-03T00:20:38.613Z,1.48
2023-02-03T00:22:46.538Z,1.38
2023-02-03T00:24:54.558Z,1.30
2023-02-03T00:27:02.469Z,1.15
2023-02-03T00:29:10.436Z,1.27
2023-02-03T00:31:19.968Z,1.30
2023-02-03T00:33:30.577Z,1.50
2023-02-03T00:35:41.076Z,1.10
2023-02-03T00:37:54.790Z,1.08
2023-02-03T00:40:02.698Z,0.90
2023-02-03T00:42:10.847Z,1.40
2023-02-03T00:44:18.812Z,1.30
2023-02-03T00:46:27.055Z,1.10
2023-02-03T00:48:37.953Z,1.50
2023-02-03T00:50:45.951Z,1.30
2023-02-03T00:52:53.861Z,1.05
2023-02-03T00:55:01.875Z,1.27
2023-02-03T00:57:09.847Z,1.02
2023-02-03T00:59:18.898Z,1.10
2023-02-03T01:01:27.403Z,0.98
2023-02-03T01:03:38.281Z,1.55
2023-02-03T01:05:46.105Z,1.60
2023-02-03T01:07:54.713Z,1.13
2023-02-03T01:10:02.649Z,1.15
2023-02-03T01:12:10.960Z,1.30
2023-02-03T01:14:18.893Z,1.10
2023-02-03T01:16:28.739Z,1.35
2023-02-03T01:18:39.435Z,1.35
2023-02-03T01:20:47.599Z,1.42
2023-02-03T01:22:55.818Z,2.17
2023-02-03T01:25:04.728Z,1.23
2023-02-03T01:27:13.258Z,1.70
2023-02-03T01:29:21.408Z,1.50
2023-02-03T01:31:35.041Z,1.42
2023-02-03T01:33:48.230Z,1.45
2023-02-03T01:35:55.939Z,1.50
2023-02-03T01:38:04.158Z,1.55
2023-02-03T01:40:14.472Z,1.20
2023-02-03T01:42:22.321Z,1.30
2023-02-03T01:44:52.607Z,1.35
2023-02-03T01:47:01.542Z,1.65
2023-02-03T01:49:16.552Z,1.10
2023-02-03T01:51:26.479Z,1.38
2023-02-03T01:53:37.558Z,2.10
2023-02-03T01:55:49.693Z,1.80
2023-02-03T01:58:04.241Z,1.90
2023-02-03T02:00:14.318Z,1.52
2023-02-03T02:02:23.111Z,1.90
2023-02-03T02:04:37.421Z,2.13
2023-02-03T02:06:48.148Z,2.28
2023-02-03T02:08:59.378Z,2.00
2023-02-03T02:11:08.147Z,2.30
2023-02-03T02:13:17.787Z,1.98
2023-02-03T02:15:34.666Z,2.03
2023-02-03T02:18:01.175Z,1.83
2023-02-03T02:20:38.779Z,2.10
2023-02-03T02:23:02.502Z,2.00
2023-02-03T02:25:32.589Z,2.90
2023-02-03T02:28:03.238Z,2.63
2023-02-03T02:30:44.077Z,2.38
2023-02-03T02:33:18.071Z,2.47
2023-02-03T02:35:39.555Z,2.67
2023-02-03T02:37:54.070Z,2.75
2023-02-03T02:40:13.900Z,2.47
2023-02-03T02:42:29.825Z,2.63
2023-02-03T02:44:44.176Z,2.60
2023-02-03T02:46:56.373Z,3.03
2023-02-03T02:49:14.060Z,3.25
2023-02-03T02:51:24.357Z,3.10
2023-02-03T02:53:37.365Z,3.03
2023-02-03T02:55:47.734Z,2.92
2023-02-03T02:57:58.608Z,3.22
2023-02-03T03:00:09.140Z,2.80
2023-02-03T03:02:17.660Z,2.75
2023-02-03T03:04:30.947Z,3.17
2023-02-03T03:06:43.819Z,3.40
2023-02-03T03:08:57.186Z,3.22
2023-02-03T03:11:06.153Z,2.70
2023-02-03T03:13:19.597Z,2.70
2023-02-03T03:15:32.862Z,2.47
2023-02-03T03:17:45.292Z,2.47
2023-02-03T03:19:59.237Z,2.65
2023-02-03T03:22:10.835Z,2.45
2023-02-03T03:24:26.846Z,2.60
2023-02-03T03:26:42.951Z,2.20
2023-02-03T03:28:53.410Z,2.53
2023-02-03T03:31:01.624Z,2.00
2023-02-03T03:33:11.210Z,2.30
2023-02-03T03:35:22.068Z,1.90
2023-02-03T03:37:37.223Z,2.35
2023-02-03T03:39:50.100Z,2.50
2023-02-03T03:42:05.230Z,1.90
2023-02-03T03:44:17.293Z,1.92
2023-02-03T03:46:30.978Z,2.00
2023-02-03T03:48:43.385Z,2.30
2023-02-03T03:50:59.216Z,1.80
2023-02-03T03:53:08.462Z,2.00
2023-02-03T03:55:17.712Z,2.15
2023-02-03T03:57:29.944Z,1.92
2023-02-03T03:59:42.397Z,2.15
2023-02-03T04:01:51.959Z,2.30
2023-02-03T04:04:03.805Z,1.85
2023-02-03T04:06:15.984Z,1.73
2023-02-03T04:08:24.179Z,1.70
2023-02-03T04:10:35.972Z,1.75
2023-02-03T04:12:43.700Z,1.67
2023-02-03T04:14:51.610Z,1.80
2023-02-03T04:17:00.113Z,1.40
2023-02-03T04:19:08.631Z,2.00
2023-02-03T04:21:19.096Z,1.50
2023-02-03T04:23:27.214Z,1.85
2023-02-03T04:25:35.035Z,1.50
2023-02-03T04:27:43.079Z,1.60
2023-02-03T04:29:51.215Z,1.50
2023-02-03T04:31:59.064Z,1.67
2023-02-03T04:34:07.159Z,1.75
2023-02-03T04:36:15.124Z,1.92
2023-02-03T04:38:25.617Z,1.40
2023-02-03T04:40:35.095Z,1.40
2023-02-03T04:42:44.074Z,1.95
2023-02-03T04:44:51.953Z,1.88
2023-02-03T04:46:59.767Z,1.80
2023-02-03T04:49:07.546Z,1.75
2023-02-03T04:51:15.325Z,1.90
2023-02-03T04:53:25.947Z,1.85
2023-02-03T04:55:33.740Z,1.92
2023-02-03T04:57:41.636Z,1.90
2023-02-03T04:59:49.563Z,1.98
2023-02-03T05:01:57.541Z,1.33
2023-02-03T05:04:05.354Z,2.28
2023-02-03T05:06:14.927Z,1.67
2023-02-03T05:08:25.661Z,2.00
2023-02-03T05:10:33.537Z,1.70
2023-02-03T05:12:41.489Z,1.80
2023-02-03T05:14:49.331Z,1.95
2023-02-03T05:16:57.148Z,2.13
2023-02-03T05:19:05.724Z,1.65
2023-02-03T05:21:13.909Z,2.00
2023-02-03T05:23:22.070Z,2.05
2023-02-03T05:25:32.959Z,2.10
2023-02-03T05:27:41.555Z,2.28
2023-02-03T05:29:49.746Z,2.20
2023-02-03T05:31:57.856Z,2.25
2023-02-03T05:34:05.887Z,2.35
2023-02-03T05:36:14.034Z,2.50
2023-02-03T05:38:21.910Z,3.13
2023-02-03T05:40:44.971Z,2.30
2023-02-03T05:42:53.298Z,2.25
2023-02-03T05:45:01.159Z,2.67
2023-02-03T05:47:09.446Z,2.58
2023-02-03T05:49:17.640Z,2.30
2023-02-03T05:51:26.040Z,2.42
2023-02-03T05:53:33.896Z,2.28
2023-02-03T05:55:44.497Z,2.30
2023-02-03T05:57:52.291Z,2.70
2023-02-03T06:00:00.418Z,2.50
2023-02-03T06:02:08.670Z,3.42
2023-02-03T06:04:16.832Z,2.45
2023-02-03T06:06:24.721Z,2.80
2023-02-03T06:08:32.422Z,3.05
2023-02-03T06:10:40.466Z,2.47
2023-02-03T06:12:51.925Z,2.80
2023-02-03T06:14:59.886Z,2.45
2023-02-03T06:17:09.479Z,2.45
2023-02-03T06:19:17.423Z,2.25
2023-02-03T06:21:25.429Z,2.55
2023-02-03T06:23:33.269Z,2.85
2023-02-03T06:25:41.681Z,2.33
2023-02-03T06:27:52.419Z,2.35
2023-02-03T06:30:00.353Z,2.30
2023-02-03T06:32:08.309Z,2.72
2023-02-03T06:34:16.407Z,3.00
2023-02-03T06:36:24.408Z,4.30
2023-02-03T06:38:32.660Z,7.55
2023-02-03T06:40:40.461Z,5.60
2023-02-03T06:42:51.760Z,4.07
2023-02-03T06:44:59.711Z,3.03
2023-02-03T06:47:07.630Z,2.17
2023-02-03T06:49:15.750Z,3.08
2023-02-03T06:51:24.922Z,2.30
2023-02-03T06:53:32.918Z,2.55
2023-02-03T06:55:40.786Z,2.40
2023-02-03T06:57:52.019Z,3.30
2023-02-03T06:59:59.822Z,2.40
2023-02-03T07:02:07.897Z,2.50
2023-02-03T07:04:15.770Z,2.25
2023-02-03T07:06:23.567Z,2.08
2023-02-03T07:08:31.496Z,2.35
2023-02-03T07:10:39.296Z,2.22
2023-02-03T07:12:47.373Z,2.50
2023-02-03T07:14:57.862Z,2.25
2023-02-03T07:17:06.456Z,2.50
2023-02-03T07:19:14.843Z,2.50
2023-02-03T07:21:22.844Z,2.35
2023-02-03T07:23:30.604Z,2.50
2023-02-03T07:25:38.775Z,2.33
2023-02-03T07:27:46.701Z,2.30
2023-02-03T07:29:57.057Z,2.15
2023-02-03T07:32:04.902Z,2.28
2023-02-03T07:34:13.184Z,2.40
2023-02-03T07:36:20.933Z,2.60
2023-02-03T07:38:30.526Z,2.13
2023-02-03T07:40:38.242Z,2.15
2023-02-03T07:42:46.419Z,3.05
2023-02-03T07:44:54.678Z,2.60
2023-02-03T07:47:05.100Z,2.75
2023-02-03T07:49:13.322Z,2.80
2023-02-03T07:51:21.057Z,2.45
2023-02-03T07:53:29.553Z,3.13
2023-02-03T07:55:37.821Z,2.85
2023-02-03T07:57:45.988Z,2.53
2023-02-03T07:59:53.991Z,2.70
2023-02-03T08:02:04.458Z,3.00
2023-02-03T08:04:16.527Z,3.55
2023-02-03T08:06:26.844Z,3.38
2023-02-03T08:08:34.813Z,3.15
2023-02-03T08:10:42.936Z,3.75
2023-02-03T08:12:50.850Z,3.20
2023-02-03T08:14:58.882Z,4.07
2023-02-03T08:17:09.550Z,4.90
2023-02-03T08:19:17.722Z,3.28
2023-02-03T08:21:26.766Z,4.10
2023-02-03T08:23:34.735Z,3.40
2023-02-03T08:25:43.021Z,3.15
2023-02-03T08:27:50.941Z,3.50
2023-02-03T08:29:58.946Z,2.95
2023-02-03T08:32:12.527Z,2.90
2023-02-03T08:34:20.370Z,3.10
2023-02-03T08:36:28.990Z,3.20
2023-02-03T08:38:36.840Z,3.42
2023-02-03T08:40:44.748Z,3.15
2023-02-03T08:42:52.606Z,2.83
2023-02-03T08:45:03.990Z,3.03
2023-02-03T08:47:16.173Z,3.83
2023-02-03T08:49:24.474Z,3.50
2023-02-03T08:51:34.377Z,3.60
2023-02-03T08:53:42.140Z,3.25
2023-02-03T08:55:50.168Z,3.70
2023-02-03T08:57:58.007Z,3.80
2023-02-03T09:00:07.480Z,3.03
2023-02-03T09:02:20.099Z,4.70
2023-02-03T09:04:28.366Z,5.78
2023-02-03T09:06:36.491Z,3.70
2023-02-03T09:08:44.419Z,4.05
2023-02-03T09:10:52.531Z,3.88
2023-02-03T09:13:00.546Z,2.95
2023-02-03T09:15:09.516Z,3.13
2023-02-03T09:17:20.157Z,3.25
2023-02-03T09:19:28.848Z,3.00
2023-02-03T09:21:44.989Z,2.95
2023-02-03T09:23:54.363Z,2.50
2023-02-03T09:26:04.916Z,2.25
2023-02-03T09:28:13.025Z,2.60
2023-02-03T09:30:21.273Z,2.72
2023-02-03T09:32:31.624Z,3.33
2023-02-03T09:34:39.981Z,2.40
2023-02-03T09:36:48.130Z,2.90
2023-02-03T09:38:56.104Z,2.10
2023-02-03T09:41:11.955Z,2.63
2023-02-03T09:43:35.862Z,2.50
2023-02-03T09:45:44.039Z,2.17
2023-02-03T09:47:57.039Z,3.10
2023-02-03T09:50:08.216Z,2.22
2023-02-03T09:52:22.916Z,2.50
2023-02-03T09:54:43.654Z,2.35
2023-02-03T09:56:55.819Z,2.13
2023-02-03T09:59:04.394Z,2.03
2023-02-03T10:01:17.178Z,2.20
2023-02-03T10:03:35.316Z,2.20
2023-02-03T10:05:55.554Z,2.30
2023-02-03T10:08:11.010Z,2.53
2023-02-03T10:10:25.169Z,2.70
2023-02-03T10:13:08.019Z,2.42
2023-02-03T10:15:44.331Z,2.05
2023-02-03T10:17:57.837Z,2.08
2023-02-03T10:20:14.955Z,2.03
2023-02-03T10:22:28.275Z,2.20
2023-02-03T10:24:43.541Z,1.90
2023-02-03T10:26:52.790Z,1.70
2023-02-03T10:29:06.186Z,2.00
2023-02-03T10:31:20.835Z,1.98
2023-02-03T10:33:30.376Z,1.60
2023-02-03T10:35:48.949Z,2.30
2023-02-03T10:38:01.171Z,2.20
2023-02-03T10:40:09.751Z,1.48
2023-02-03T10:42:18.697Z,2.10
2023-02-03T10:44:35.303Z,1.80
2023-02-03T10:46:45.496Z,1.73
2023-02-03T10:48:53.382Z,2.42
2023-02-03T10:51:05.694Z,1.60
2023-02-03T10:53:25.740Z,2.38
2023-02-03T10:55:34.868Z,1.52
2023-02-03T10:57:42.669Z,1.80
2023-02-03T10:59:52.342Z,1.98
2023-02-03T11:02:00.956Z,1.60
2023-02-03T11:04:10.090Z,1.80
2023-02-03T11:06:21.094Z,2.35
2023-02-03T11:08:33.544Z,2.15
2023-02-03T11:10:43.489Z,2.40
2023-02-03T11:12:51.747Z,2.00
2023-02-03T11:15:09.175Z,2.13
2023-02-03T11:17:23.165Z,1.80
2023-02-03T11:19:31.275Z,1.42
2023-02-03T11:21:50.157Z,1.65
2023-02-03T11:24:04.473Z,1.65
2023-02-03T11:26:15.300Z,1.15
2023-02-03T11:28:23.287Z,1.50
2023-02-03T11:30:32.418Z,1.15
2023-02-03T11:32:43.113Z,1.40
2023-02-03T11:34:59.994Z,1.42
2023-02-03T11:37:35.937Z,1.60
2023-02-03T11:39:44.202Z,1.55
2023-02-03T11:41:52.501Z,1.50
2023-02-03T11:44:00.735Z,1.58
2023-02-03T11:46:10.152Z,1.30
2023-02-03T11:48:28.189Z,1.55
2023-02-03T11:50:41.402Z,1.25
2023-02-03T11:53:03.608Z,1.55
2023-02-03T11:55:23.261Z,1.58
2023-02-03T11:57:39.296Z,1.48
2023-02-03T12:00:04.861Z,1.15
2023-02-03T12:02:36.689Z,1.50
2023-02-03T12:05:04.231Z,1.50
2023-02-03T12:07:31.367Z,1.27
2023-02-03T12:09:52.494Z,1.55
2023-02-03T12:12:36.092Z,1.35
2023-02-03T12:14:55.712Z,1.63
2023-02-03T12:17:37.540Z,1.90
2023-02-03T12:20:01.655Z,1.35
2023-02-03T12:22:19.064Z,1.25
2023-02-03T12:24:39.658Z,1.05
2023-02-03T12:26:59.914Z,1.48
2023-02-03T12:29:12.959Z,1.30
2023-02-03T12:31:29.607Z,1.38
2023-02-03T12:33:44.440Z,1.15
2023-02-03T12:35:56.951Z,1.08
2023-02-03T12:38:08.861Z,1.00
2023-02-03T12:40:21.959Z,0.80
2023-02-03T12:42:38.138Z,0.95
2023-02-03T12:44:51.952Z,0.80
2023-02-03T12:47:06.332Z,0.70
2023-02-03T12:49:27.390Z,0.82
2023-02-03T12:51:42.444Z,1.05
2023-02-03T12:53:56.808Z,0.90
2023-02-03T12:56:13.397Z,1.77
2023-02-03T12:58:28.685Z,0.93
2023-02-03T13:00:43.786Z,0.75
2023-02-03T13:03:03.838Z,0.82
2023-02-03T13:05:22.279Z,1.20
2023-02-03T13:07:35.944Z,1.05
2023-02-03T13:09:51.998Z,1.20
2023-02-03T13:12:07.348Z,1.13
2023-02-03T13:14:24.668Z,1.45
2023-02-03T13:16:38.595Z,1.50
2023-02-03T13:18:53.167Z,1.98
2023-02-03T13:21:01.217Z,1.70
2023-02-03T13:23:13.955Z,2.13
2023-02-03T13:25:29.159Z,1.90
2023-02-03T13:27:49.558Z,0.90
2023-02-03T13:30:21.723Z,1.25
2023-02-03T13:32:47.980Z,1.70
2023-02-03T13:35:18.703Z,1.80
2023-02-03T13:37:49.714Z,1.65
2023-02-03T13:40:11.277Z,1.23
2023-02-03T13:42:29.162Z,1.17
2023-02-03T13:44:38.452Z,1.10
2023-02-03T13:46:51.626Z,1.70
2023-02-03T13:49:02.507Z,1.25
2023-02-03T13:51:18.038Z,2.10
2023-02-03T13:53:29.574Z,1.80
2023-02-03T13:55:41.539Z,2.10
2023-02-03T13:57:55.710Z,1.50
2023-02-03T14:00:05.259Z,1.60
2023-02-03T14:02:43.475Z,1.60
2023-02-03T14:04:56.891Z,1.42
2023-02-03T14:07:06.537Z,1.30
2023-02-03T14:09:23.670Z,1.20
2023-02-03T14:11:48.290Z,1.30
2023-02-03T14:13:55.926Z,1.60
2023-02-03T14:16:25.248Z,1.00
2023-02-03T14:18:47.438Z,1.23
2023-02-03T14:21:12.711Z,0.88
2023-02-03T14:23:37.359Z,1.10
2023-02-03T14:25:48.342Z,0.95
2023-02-03T14:28:03.210Z,1.50
2023-02-03T14:30:14.141Z,1.08
2023-02-03T14:32:22.065Z,0.80
2023-02-03T14:34:38.764Z,0.80
2023-02-03T14:36:56.846Z,0.90
2023-02-03T14:39:07.972Z,0.80
2023-02-03T14:41:22.130Z,0.70
2023-02-03T14:43:39.198Z,0.95
2023-02-03T14:46:20.738Z,0.90
2023-02-03T14:48:52.183Z,0.82
2023-02-03T14:51:13.082Z,0.60
2023-02-03T14:54:01.358Z,1.00
2023-02-03T14:56:20.297Z,0.63
2023-02-03T14:58:34.885Z,0.93
2023-02-03T15:00:43.191Z,0.90
2023-02-03T15:03:22.572Z,0.80
2023-02-03T15:05:43.425Z,0.95
2023-02-03T15:07:54.152Z,0.95
2023-02-03T15:10:02.064Z,1.17
2023-02-03T15:12:26.709Z,1.60
2023-02-03T15:14:34.540Z,5.05
2023-02-03T15:16:48.000Z,2.35
2023-02-03T15:19:07.448Z,0.80
2023-02-03T15:21:23.081Z,1.40
2023-02-03T15:23:43.396Z,1.65
2023-02-03T15:25:57.770Z,1.60
2023-02-03T15:28:17.107Z,1.10
2023-02-03T15:30:28.396Z,1.40
2023-02-03T15:32:38.278Z,1.02
2023-02-03T15:34:49.899Z,1.15
2023-02-03T15:37:00.127Z,0.93
2023-02-03T15:39:20.403Z,0.90
2023-02-03T15:41:29.404Z,1.20
2023-02-03T15:43:41.974Z,1.17
2023-02-03T15:46:01.780Z,0.70
2023-02-03T15:48:18.174Z,0.85
2023-02-03T15:50:36.236Z,0.98
2023-02-03T15:52:47.287Z,0.85
2023-02-03T15:55:06.810Z,0.80
2023-02-03T15:57:25.952Z,1.10
2023-02-03T15:59:38.010Z,1.52
2023-02-03T16:01:45.943Z,1.23
2023-02-03T16:03:56.508Z,2.15
2023-02-03T16:06:11.442Z,1.10
2023-02-03T16:08:37.256Z,2.20
2023-02-03T16:10:47.872Z,2.15
2023-02-03T16:12:56.346Z,1.83
2023-02-03T16:15:04.778Z,2.22
2023-02-03T16:17:26.317Z,1.00
2023-02-03T16:19:40.386Z,1.30
2023-02-03T16:21:56.631Z,1.88
2023-02-03T16:24:05.529Z,2.05
2023-02-03T16:26:23.154Z,1.10
2023-02-03T16:28:43.761Z,1.75
2023-02-03T16:31:13.438Z,1.38
2023-02-03T16:33:33.862Z,1.50
2023-02-03T16:35:54.145Z,1.10
2023-02-03T16:38:21.192Z,4.68
2023-02-03T16:40:41.435Z,5.45
2023-02-03T16:43:04.355Z,2.65
2023-02-03T16:45:32.464Z,5.80
2023-02-03T16:47:54.366Z,4.03
2023-02-03T16:50:14.708Z,9.40
2023-02-03T16:52:22.911Z,5.10
2023-02-03T16:54:30.834Z,5.32
2023-02-03T16:56:38.762Z,3.45
2023-02-03T16:58:49.269Z,6.65
2023-02-03T17:00:59.095Z,5.38
2023-02-03T17:03:07.668Z,7.40
2023-02-03T17:05:15.496Z,5.50
2023-02-03T17:07:23.327Z,3.35
2023-02-03T17:09:35.128Z,3.22
2023-02-03T17:11:43.029Z,8.90
2023-02-03T17:13:53.875Z,6.07
2023-02-03T17:16:02.092Z,4.40
2023-02-03T17:18:10.104Z,4.43
2023-02-03T17:20:18.406Z,6.22
2023-02-03T17:22:27.209Z,4.20
2023-02-03T17:24:35.242Z,4.28
2023-02-03T17:26:43.467Z,6.50
2023-02-03T17:28:54.008Z,7.38
2023-02-03T17:31:04.698Z,6.55
2023-02-03T17:33:14.956Z,8.25
2023-02-03T17:35:22.975Z,7.47
2023-02-03T17:37:30.701Z,7.93
2023-02-03T17:53:53.085Z,3.33
2023-02-03T17:56:00.910Z,2.38
2023-02-03T17:58:08.965Z,2.67
2023-02-03T18:00:20.500Z,3.08
2023-02-03T18:02:28.602Z,2.03
2023-02-03T18:04:36.723Z,2.10
2023-02-03T18:06:45.282Z,3.03
2023-02-03T18:08:53.900Z,3.00
2023-02-03T18:11:03.152Z,2.55
2023-02-03T18:13:11.608Z,2.30
2023-02-03T18:15:22.374Z,2.50
2023-02-03T18:17:30.276Z,1.80
2023-02-03T18:19:40.010Z,2.50
2023-02-03T18:21:48.976Z,3.00
2023-02-03T18:24:00.055Z,2.50
2023-02-03T18:26:09.186Z,2.50
2023-02-03T18:28:17.135Z,2.55
2023-02-03T18:30:27.667Z,2.33
2023-02-03T18:32:35.862Z,2.60
2023-02-03T18:34:43.947Z,2.92
2023-02-03T18:36:52.106Z,3.05
2023-02-03T18:39:00.057Z,2.97
2023-02-03T18:41:09.280Z,2.72
2023-02-03T18:43:17.298Z,2.28
2023-02-03T18:45:28.254Z,2.20
2023-02-03T18:47:37.585Z,3.00
2023-02-03T18:49:45.757Z,2.35
2023-02-03T18:51:53.597Z,2.30
2023-02-03T18:54:03.343Z,2.88
2023-02-03T18:56:13.126Z,3.25
2023-02-03T18:58:21.044Z,6.60
2023-02-03T19:00:32.427Z,2.33
2023-02-03T19:02:40.552Z,2.45
2023-02-03T19:04:48.600Z,3.45
2023-02-03T19:06:56.553Z,3.22
2023-02-03T19:09:05.609Z,2.30
2023-02-03T19:11:15.064Z,2.50
2023-02-03T19:13:25.269Z,2.90
2023-02-03T19:15:36.263Z,2.30
2023-02-03T19:17:46.153Z,2.90
2023-02-03T19:20:03.816Z,3.22
2023-02-03T19:22:11.611Z,3.30
2023-02-03T19:24:20.182Z,2.20
2023-02-03T19:26:28.095Z,2.08
2023-02-03T19:28:36.527Z,2.30
2023-02-03T19:30:47.582Z,2.35
2023-02-03T19:32:55.772Z,3.20
2023-02-03T19:35:05.145Z,2.90
2023-02-03T19:37:13.266Z,2.50
2023-02-03T19:39:21.710Z,2.20
2023-02-03T19:41:31.107Z,2.15
2023-02-03T19:43:40.249Z,2.90
2023-02-03T19:45:51.289Z,3.40
2023-02-03T19:47:59.487Z,3.10
2023-02-03T19:50:08.327Z,2.95
2023-02-03T19:52:16.229Z,2.38
2023-02-03T19:54:24.017Z,4.15
2023-02-03T19:56:32.536Z,3.55
2023-02-03T19:58:40.700Z,3.00
2023-02-03T20:00:51.252Z,3.00
2023-02-03T20:02:59.165Z,3.60
2023-02-03T20:05:07.291Z,2.63
2023-02-03T20:07:15.675Z,6.15
2023-02-03T20:09:23.479Z,3.00
2023-02-03T20:11:31.640Z,2.70
2023-02-03T20:13:40.764Z,3.40
2023-02-03T20:15:51.684Z,3.00
2023-02-03T20:18:00.076Z,2.78
2023-02-03T20:20:08.645Z,3.75
2023-02-03T20:22:16.544Z,3.28
2023-02-03T20:24:25.154Z,2.60
2023-02-03T20:26:33.056Z,2.65
2023-02-03T20:28:41.114Z,2.40
2023-02-03T20:30:59.847Z,4.53
2023-02-03T20:33:08.276Z,4.60
2023-02-03T20:35:16.240Z,4.82
2023-02-03T20:37:24.173Z,3.25
2023-02-03T20:39:32.271Z,2.45
2023-02-03T20:41:45.331Z,5.28
2023-02-03T20:43:53.508Z,3.50
2023-02-03T20:46:04.217Z,7.15
2023-02-03T20:48:13.862Z,9.18
2023-02-03T20:50:28.940Z,5.07
2023-02-03T20:52:39.492Z,5.47
2023-02-03T20:54:48.044Z,4.40
2023-02-03T20:56:55.834Z,5.57
2023-02-03T20:59:03.650Z,4.38
2023-02-03T21:01:18.549Z,13.05
2023-02-03T21:03:39.607Z,4.50
2023-02-03T21:05:47.560Z,3.78
2023-02-03T21:07:55.772Z,10.43
2023-02-03T21:10:21.231Z,3.53
2023-02-03T21:12:31.679Z,6.57
2023-02-03T21:14:44.716Z,4.20
2023-02-03T21:16:56.255Z,6.10
2023-02-03T21:19:04.666Z,2.50
2023-02-03T21:21:20.201Z,5.93
2023-02-03T21:23:30.876Z,5.15
2023-02-03T21:25:38.695Z,5.78
2023-02-03T21:27:50.212Z,6.32
2023-02-03T21:29:59.477Z,3.22
2023-02-03T21:32:16.019Z,3.20
2023-02-03T21:34:31.795Z,3.33
2023-02-03T21:36:40.961Z,3.72
2023-02-03T21:38:51.394Z,2.90
2023-02-03T21:41:01.241Z,2.95
2023-02-03T21:43:19.552Z,2.10
2023-02-03T21:45:45.769Z,1.95
2023-02-03T21:47:56.228Z,1.60
2023-02-03T21:50:04.179Z,1.58
2023-02-03T21:52:15.448Z,1.77
2023-02-03T21:54:30.489Z,2.10
2023-02-03T21:56:54.328Z,1.90
2023-02-03T21:59:02.323Z,1.80
2023-02-03T22:01:16.453Z,2.20
2023-02-03T22:03:45.011Z,2.20
2023-02-03T22:05:53.235Z,2.25
2023-02-03T22:08:01.029Z,2.17
2023-02-03T22:10:09.451Z,2.38
2023-02-03T22:12:17.539Z,2.28
2023-02-03T22:14:26.303Z,2.97
2023-02-03T22:16:34.471Z,2.85
2023-02-03T22:18:45.613Z,2.55
2023-02-03T22:20:54.042Z,3.00
2023-02-03T22:23:01.906Z,2.80
2023-02-03T22:25:11.256Z,2.72
2023-02-03T22:27:19.210Z,4.45
2023-02-03T22:29:27.059Z,3.70
2023-02-03T22:31:35.073Z,3.40
2023-02-03T22:33:46.018Z,3.20
2023-02-03T22:35:53.884Z,3.80
2023-02-03T22:38:01.977Z,3.90
2023-02-03T22:40:10.795Z,3.85
2023-02-03T22:42:18.738Z,3.78
2023-02-03T22:44:27.895Z,3.35
2023-02-03T22:46:35.688Z,4.13
2023-02-03T22:48:46.495Z,3.65
2023-02-03T22:50:54.244Z,3.60
2023-02-03T22:53:04.365Z,4.00
2023-02-03T22:55:12.954Z,3.85
2023-02-03T22:57:20.815Z,4.40
2023-02-03T22:59:28.574Z,3.75
2023-02-03T23:01:39.379Z,3.85
2023-02-03T23:03:52.497Z,4.28
2023-02-03T23:06:00.412Z,3.85
2023-02-03T23:08:08.503Z,4.00
2023-02-03T23:10:18.646Z,4.25
2023-02-03T23:12:26.715Z,3.53
2023-02-03T23:14:34.576Z,3.92
2023-02-03T23:16:42.808Z,4.90
2023-02-03T23:18:53.282Z,4.43
2023-02-03T23:21:01.383Z,3.95
2023-02-03T23:23:09.184Z,4.00
2023-02-03T23:25:17.471Z,3.83
2023-02-03T23:27:25.387Z,4.25
2023-02-03T23:29:33.376Z,3.90
2023-02-03T23:31:41.376Z,3.22
2023-02-03T23:34:01.548Z,3.67
2023-02-03T23:36:12.644Z,3.83
2023-02-03T23:38:20.879Z,3.20
2023-02-03T23:40:29.207Z,3.20
2023-02-03T23:42:37.769Z,3.20
2023-02-03T23:44:48.374Z,3.60
2023-02-03T23:46:56.197Z,3.90
2023-02-03T23:49:04.572Z,4.55
2023-02-03T23:51:15.692Z,3.22
2023-02-03T23:53:24.081Z,3.20
2023-02-03T23:55:32.239Z,3.90
2023-02-03T23:57:43.010Z,3.70
2023-02-03T23:59:51.636Z,2.90
